sensor_id;sensor_type;location;lat;lon;timestamp;P1;durP1;ratioP1;P2;durP2;ratioP2
2888;SDS011;1453;42.708;23.282;2023-01-15T00:01:30;32.20;;;19.10;;
2888;SDS011;1453;42.708;23.282;2023-01-15T00:04:01;27.58;;;16.50;;
2888;SDS011;1453;42.708;23.282;2023-01-15T00:06:31;35.08;;;18.05;;
2888;SDS011;1453;42.708;23.282;2023-01-15T00:09:00;27.42;;;16.67;;
2888;SDS011;1453;42.708;23.282;2023-01-15T00:11:26;35.27;;;17.33;;
2888;SDS011;1453;42.708;23.282;2023-01-15T00:13:52;30.47;;;15.67;;
2888;SDS011;1453;42.708;23.282;2023-01-15T00:16:19;29.57;;;15.80;;
2888;SDS011;1453;42.708;23.282;2023-01-15T00:21:21;30.48;;;15.52;;
2888;SDS011;1453;42.708;23.282;2023-01-15T00:23:48;27.42;;;15.48;;
2888;SDS011;1453;42.708;23.282;2023-01-15T00:26:33;29.60;;;15.30;;
2888;SDS011;1453;42.708;23.282;2023-01-15T00:29:18;29.02;;;16.08;;
2888;SDS011;1453;42.708;23.282;2023-01-15T00:34:19;25.98;;;15.35;;
2888;SDS011;1453;42.708;23.282;2023-01-15T00:36:44;27.70;;;15.20;;
2888;SDS011;1453;42.708;23.282;2023-01-15T00:39:10;34.83;;;16.80;;
2888;SDS011;1453;42.708;23.282;2023-01-15T00:41:36;25.40;;;15.83;;
2888;SDS011;1453;42.708;23.282;2023-01-15T00:44:02;32.27;;;16.57;;
2888;SDS011;1453;42.708;23.282;2023-01-15T00:46:28;32.50;;;17.30;;
2888;SDS011;1453;42.708;23.282;2023-01-15T00:48:53;27.87;;;16.70;;
2888;SDS011;1453;42.708;23.282;2023-01-15T00:51:19;28.40;;;15.10;;
2888;SDS011;1453;42.708;23.282;2023-01-15T00:53:45;30.20;;;17.37;;
2888;SDS011;1453;42.708;23.282;2023-01-15T00:56:11;35.43;;;15.80;;
2888;SDS011;1453;42.708;23.282;2023-01-15T00:58:36;27.33;;;16.63;;
2888;SDS011;1453;42.708;23.282;2023-01-15T01:01:02;28.50;;;15.73;;
2888;SDS011;1453;42.708;23.282;2023-01-15T01:03:28;24.57;;;15.30;;
2888;SDS011;1453;42.708;23.282;2023-01-15T01:05:58;28.50;;;15.60;;
2888;SDS011;1453;42.708;23.282;2023-01-15T01:08:28;29.80;;;15.45;;
2888;SDS011;1453;42.708;23.282;2023-01-15T01:11:04;27.52;;;14.95;;
2888;SDS011;1453;42.708;23.282;2023-01-15T01:13:33;28.48;;;15.40;;
2888;SDS011;1453;42.708;23.282;2023-01-15T01:16:01;27.58;;;15.35;;
2888;SDS011;1453;42.708;23.282;2023-01-15T01:18:27;27.58;;;15.25;;
2888;SDS011;1453;42.708;23.282;2023-01-15T01:20:53;25.83;;;14.35;;
2888;SDS011;1453;42.708;23.282;2023-01-15T01:23:21;26.92;;;14.45;;
2888;SDS011;1453;42.708;23.282;2023-01-15T01:25:48;25.90;;;13.70;;
2888;SDS011;1453;42.708;23.282;2023-01-15T01:28:14;27.23;;;15.03;;
2888;SDS011;1453;42.708;23.282;2023-01-15T01:30:40;24.97;;;13.10;;
2888;SDS011;1453;42.708;23.282;2023-01-15T01:33:06;24.42;;;13.68;;
2888;SDS011;1453;42.708;23.282;2023-01-15T01:35:32;24.70;;;13.50;;
2888;SDS011;1453;42.708;23.282;2023-01-15T01:37:58;25.55;;;12.63;;
2888;SDS011;1453;42.708;23.282;2023-01-15T01:40:24;21.53;;;12.10;;
2888;SDS011;1453;42.708;23.282;2023-01-15T01:42:50;21.60;;;12.63;;
2888;SDS011;1453;42.708;23.282;2023-01-15T01:45:19;22.77;;;13.70;;
2888;SDS011;1453;42.708;23.282;2023-01-15T01:47:58;30.42;;;13.18;;
2888;SDS011;1453;42.708;23.282;2023-01-15T01:50:28;23.83;;;14.40;;
2888;SDS011;1453;42.708;23.282;2023-01-15T01:52:56;23.70;;;12.63;;
2888;SDS011;1453;42.708;23.282;2023-01-15T01:55:28;20.13;;;12.70;;
2888;SDS011;1453;42.708;23.282;2023-01-15T01:57:57;23.23;;;13.07;;
2888;SDS011;1453;42.708;23.282;2023-01-15T02:00:25;25.83;;;13.77;;
2888;SDS011;1453;42.708;23.282;2023-01-15T02:02:52;21.48;;;13.90;;
2888;SDS011;1453;42.708;23.282;2023-01-15T02:05:21;22.35;;;13.43;;
2888;SDS011;1453;42.708;23.282;2023-01-15T02:07:57;26.35;;;13.35;;
2888;SDS011;1453;42.708;23.282;2023-01-15T02:10:24;28.60;;;15.35;;
2888;SDS011;1453;42.708;23.282;2023-01-15T02:13:01;24.83;;;14.50;;
2888;SDS011;1453;42.708;23.282;2023-01-15T02:15:39;24.40;;;14.35;;
2888;SDS011;1453;42.708;23.282;2023-01-15T02:18:34;25.30;;;15.20;;
2888;SDS011;1453;42.708;23.282;2023-01-15T02:22:00;22.50;;;13.68;;
2888;SDS011;1453;42.708;23.282;2023-01-15T02:24:30;26.90;;;14.27;;
2888;SDS011;1453;42.708;23.282;2023-01-15T02:32:43;26.02;;;14.07;;
2888;SDS011;1453;42.708;23.282;2023-01-15T02:35:30;25.63;;;15.18;;
2888;SDS011;1453;42.708;23.282;2023-01-15T02:38:06;20.92;;;13.90;;
2888;SDS011;1453;42.708;23.282;2023-01-15T02:40:36;23.35;;;13.52;;
2888;SDS011;1453;42.708;23.282;2023-01-15T02:43:04;24.75;;;13.35;;
2888;SDS011;1453;42.708;23.282;2023-01-15T02:45:32;22.65;;;12.85;;
2888;SDS011;1453;42.708;23.282;2023-01-15T02:48:04;26.88;;;15.00;;
2888;SDS011;1453;42.708;23.282;2023-01-15T02:50:36;27.08;;;14.98;;
2888;SDS011;1453;42.708;23.282;2023-01-15T02:53:16;24.85;;;14.27;;
2888;SDS011;1453;42.708;23.282;2023-01-15T02:55:48;32.67;;;17.27;;
2888;SDS011;1453;42.708;23.282;2023-01-15T02:58:28;29.95;;;16.02;;
2888;SDS011;1453;42.708;23.282;2023-01-15T03:00:57;26.45;;;14.63;;
2888;SDS011;1453;42.708;23.282;2023-01-15T03:03:48;24.15;;;13.70;;
2888;SDS011;1453;42.708;23.282;2023-01-15T03:09:12;27.23;;;15.45;;
2888;SDS011;1453;42.708;23.282;2023-01-15T03:11:43;25.70;;;14.95;;
2888;SDS011;1453;42.708;23.282;2023-01-15T03:14:29;26.98;;;14.38;;
2888;SDS011;1453;42.708;23.282;2023-01-15T03:17:30;25.42;;;14.32;;
2888;SDS011;1453;42.708;23.282;2023-01-15T03:22:45;26.30;;;15.98;;
2888;SDS011;1453;42.708;23.282;2023-01-15T03:25:23;24.33;;;15.15;;
2888;SDS011;1453;42.708;23.282;2023-01-15T03:28:02;25.48;;;14.57;;
2888;SDS011;1453;42.708;23.282;2023-01-15T03:30:29;27.17;;;15.02;;
2888;SDS011;1453;42.708;23.282;2023-01-15T03:32:57;27.48;;;15.32;;
2888;SDS011;1453;42.708;23.282;2023-01-15T03:38:24;27.80;;;14.65;;
2888;SDS011;1453;42.708;23.282;2023-01-15T03:50:41;25.60;;;15.43;;
2888;SDS011;1453;42.708;23.282;2023-01-15T03:58:54;25.88;;;15.40;;
2888;SDS011;1453;42.708;23.282;2023-01-15T04:01:34;26.90;;;14.93;;
2888;SDS011;1453;42.708;23.282;2023-01-15T04:04:04;27.70;;;14.63;;
2888;SDS011;1453;42.708;23.282;2023-01-15T04:06:31;26.02;;;13.75;;
2888;SDS011;1453;42.708;23.282;2023-01-15T04:09:02;21.13;;;13.23;;
2888;SDS011;1453;42.708;23.282;2023-01-15T04:11:32;24.75;;;13.82;;
2888;SDS011;1453;42.708;23.282;2023-01-15T04:13:58;29.55;;;13.88;;
2888;SDS011;1453;42.708;23.282;2023-01-15T04:16:31;30.70;;;14.57;;
2888;SDS011;1453;42.708;23.282;2023-01-15T04:18:58;23.77;;;13.13;;
2888;SDS011;1453;42.708;23.282;2023-01-15T04:21:24;22.90;;;13.05;;
2888;SDS011;1453;42.708;23.282;2023-01-15T04:23:50;23.37;;;13.90;;
2888;SDS011;1453;42.708;23.282;2023-01-15T04:26:16;21.50;;;12.00;;
2888;SDS011;1453;42.708;23.282;2023-01-15T04:28:42;24.63;;;13.23;;
2888;SDS011;1453;42.708;23.282;2023-01-15T04:31:08;26.88;;;14.68;;
2888;SDS011;1453;42.708;23.282;2023-01-15T04:33:34;23.17;;;12.97;;
2888;SDS011;1453;42.708;23.282;2023-01-15T04:36:01;26.45;;;13.65;;
2888;SDS011;1453;42.708;23.282;2023-01-15T04:38:27;24.65;;;14.38;;
2888;SDS011;1453;42.708;23.282;2023-01-15T04:40:53;23.37;;;12.57;;
2888;SDS011;1453;42.708;23.282;2023-01-15T04:43:38;25.80;;;13.73;;
2888;SDS011;1453;42.708;23.282;2023-01-15T04:46:24;23.45;;;12.07;;
2888;SDS011;1453;42.708;23.282;2023-01-15T04:48:50;19.93;;;11.00;;
2888;SDS011;1453;42.708;23.282;2023-01-15T04:51:16;20.25;;;12.30;;
2888;SDS011;1453;42.708;23.282;2023-01-15T04:53:42;22.27;;;12.32;;
2888;SDS011;1453;42.708;23.282;2023-01-15T04:56:08;18.75;;;10.95;;
2888;SDS011;1453;42.708;23.282;2023-01-15T04:58:34;21.87;;;12.33;;
2888;SDS011;1453;42.708;23.282;2023-01-15T05:01:00;22.77;;;11.82;;
2888;SDS011;1453;42.708;23.282;2023-01-15T05:03:27;18.95;;;11.10;;
2888;SDS011;1453;42.708;23.282;2023-01-15T05:05:54;22.35;;;11.90;;
2888;SDS011;1453;42.708;23.282;2023-01-15T05:08:19;13.97;;;9.10;;
2888;SDS011;1453;42.708;23.282;2023-01-15T05:10:45;15.47;;;9.63;;
2888;SDS011;1453;42.708;23.282;2023-01-15T05:13:11;18.77;;;10.40;;
2888;SDS011;1453;42.708;23.282;2023-01-15T05:15:38;14.17;;;10.47;;
2888;SDS011;1453;42.708;23.282;2023-01-15T05:18:06;15.32;;;9.40;;
2888;SDS011;1453;42.708;23.282;2023-01-15T05:20:36;14.00;;;8.90;;
2888;SDS011;1453;42.708;23.282;2023-01-15T05:23:01;22.48;;;11.10;;
2888;SDS011;1453;42.708;23.282;2023-01-15T05:25:27;15.80;;;9.37;;
2888;SDS011;1453;42.708;23.282;2023-01-15T05:27:53;17.73;;;10.37;;
2888;SDS011;1453;42.708;23.282;2023-01-15T05:30:19;23.83;;;11.80;;
2888;SDS011;1453;42.708;23.282;2023-01-15T05:32:45;21.33;;;10.57;;
2888;SDS011;1453;42.708;23.282;2023-01-15T05:35:10;24.07;;;11.23;;
2888;SDS011;1453;42.708;23.282;2023-01-15T05:37:36;19.00;;;10.97;;
2888;SDS011;1453;42.708;23.282;2023-01-15T05:40:02;19.52;;;11.75;;
2888;SDS011;1453;42.708;23.282;2023-01-15T05:42:28;54.75;;;30.60;;
2888;SDS011;1453;42.708;23.282;2023-01-15T05:44:54;27.70;;;15.00;;
2888;SDS011;1453;42.708;23.282;2023-01-15T05:47:20;21.27;;;12.37;;
2888;SDS011;1453;42.708;23.282;2023-01-15T05:49:46;22.20;;;12.50;;
2888;SDS011;1453;42.708;23.282;2023-01-15T05:52:14;18.60;;;11.25;;
2888;SDS011;1453;42.708;23.282;2023-01-15T05:54:40;21.13;;;11.23;;
2888;SDS011;1453;42.708;23.282;2023-01-15T05:57:06;22.23;;;12.65;;
2888;SDS011;1453;42.708;23.282;2023-01-15T05:59:36;20.40;;;13.60;;
2888;SDS011;1453;42.708;23.282;2023-01-15T06:02:03;23.77;;;12.73;;
2888;SDS011;1453;42.708;23.282;2023-01-15T06:04:29;17.38;;;10.55;;
2888;SDS011;1453;42.708;23.282;2023-01-15T06:06:55;26.87;;;11.80;;
2888;SDS011;1453;42.708;23.282;2023-01-15T06:09:22;17.20;;;10.60;;
2888;SDS011;1453;42.708;23.282;2023-01-15T06:11:49;19.88;;;12.10;;
2888;SDS011;1453;42.708;23.282;2023-01-15T06:14:17;19.00;;;10.45;;
2888;SDS011;1453;42.708;23.282;2023-01-15T06:16:43;27.17;;;14.57;;
2888;SDS011;1453;42.708;23.282;2023-01-15T06:19:10;24.60;;;13.87;;
2888;SDS011;1453;42.708;23.282;2023-01-15T06:21:37;25.17;;;14.43;;
2888;SDS011;1453;42.708;23.282;2023-01-15T06:24:03;27.02;;;15.38;;
2888;SDS011;1453;42.708;23.282;2023-01-15T06:26:29;22.23;;;13.40;;
2888;SDS011;1453;42.708;23.282;2023-01-15T06:28:55;24.73;;;13.70;;
2888;SDS011;1453;42.708;23.282;2023-01-15T06:31:22;24.60;;;15.20;;
2888;SDS011;1453;42.708;23.282;2023-01-15T06:33:50;24.98;;;16.17;;
2888;SDS011;1453;42.708;23.282;2023-01-15T06:36:18;25.75;;;16.33;;
2888;SDS011;1453;42.708;23.282;2023-01-15T06:38:46;22.05;;;12.40;;
2888;SDS011;1453;42.708;23.282;2023-01-15T06:41:16;25.40;;;14.52;;
2888;SDS011;1453;42.708;23.282;2023-01-15T06:44:07;28.75;;;15.07;;
2888;SDS011;1453;42.708;23.282;2023-01-15T06:46:56;34.17;;;19.05;;
2888;SDS011;1453;42.708;23.282;2023-01-15T06:49:41;29.83;;;16.17;;
2888;SDS011;1453;42.708;23.282;2023-01-15T06:52:07;28.80;;;16.47;;
2888;SDS011;1453;42.708;23.282;2023-01-15T06:54:33;26.03;;;15.87;;
2888;SDS011;1453;42.708;23.282;2023-01-15T06:56:59;27.48;;;14.63;;
2888;SDS011;1453;42.708;23.282;2023-01-15T06:59:24;66.20;;;42.10;;
2888;SDS011;1453;42.708;23.282;2023-01-15T07:01:50;121.77;;;66.17;;
2888;SDS011;1453;42.708;23.282;2023-01-15T07:04:16;131.73;;;72.63;;
2888;SDS011;1453;42.708;23.282;2023-01-15T07:06:42;117.60;;;66.30;;
2888;SDS011;1453;42.708;23.282;2023-01-15T07:09:08;109.37;;;63.00;;
2888;SDS011;1453;42.708;23.282;2023-01-15T07:11:34;120.43;;;68.00;;
2888;SDS011;1453;42.708;23.282;2023-01-15T07:14:13;105.13;;;60.05;;
2888;SDS011;1453;42.708;23.282;2023-01-15T07:16:51;92.07;;;52.28;;
2888;SDS011;1453;42.708;23.282;2023-01-15T07:19:17;92.03;;;51.22;;
2888;SDS011;1453;42.708;23.282;2023-01-15T07:21:43;92.25;;;52.10;;
2888;SDS011;1453;42.708;23.282;2023-01-15T07:24:10;93.20;;;54.53;;
2888;SDS011;1453;42.708;23.282;2023-01-15T07:26:36;82.80;;;49.97;;
2888;SDS011;1453;42.708;23.282;2023-01-15T07:29:03;76.03;;;42.35;;
2888;SDS011;1453;42.708;23.282;2023-01-15T07:31:31;72.57;;;44.00;;
2888;SDS011;1453;42.708;23.282;2023-01-15T07:33:58;97.43;;;54.10;;
2888;SDS011;1453;42.708;23.282;2023-01-15T07:36:26;82.25;;;48.00;;
2888;SDS011;1453;42.708;23.282;2023-01-15T07:38:54;68.15;;;41.33;;
2888;SDS011;1453;42.708;23.282;2023-01-15T07:41:21;40.03;;;23.58;;
2888;SDS011;1453;42.708;23.282;2023-01-15T07:44:14;36.95;;;23.40;;
2888;SDS011;1453;42.708;23.282;2023-01-15T07:46:58;33.97;;;21.45;;
2888;SDS011;1453;42.708;23.282;2023-01-15T07:49:43;27.88;;;17.45;;
2888;SDS011;1453;42.708;23.282;2023-01-15T07:52:11;30.20;;;18.08;;
2888;SDS011;1453;42.708;23.282;2023-01-15T07:54:43;29.10;;;18.40;;
2888;SDS011;1453;42.708;23.282;2023-01-15T07:57:12;27.73;;;16.92;;
2888;SDS011;1453;42.708;23.282;2023-01-15T07:59:46;32.10;;;17.63;;
2888;SDS011;1453;42.708;23.282;2023-01-15T08:02:15;24.93;;;15.17;;
2888;SDS011;1453;42.708;23.282;2023-01-15T08:04:43;20.77;;;16.20;;
2888;SDS011;1453;42.708;23.282;2023-01-15T08:07:10;25.20;;;15.30;;
2888;SDS011;1453;42.708;23.282;2023-01-15T08:09:38;25.33;;;14.40;;
2888;SDS011;1453;42.708;23.282;2023-01-15T08:12:05;26.67;;;14.50;;
2888;SDS011;1453;42.708;23.282;2023-01-15T08:14:51;22.93;;;14.43;;
2888;SDS011;1453;42.708;23.282;2023-01-15T08:17:36;22.20;;;13.80;;
2888;SDS011;1453;42.708;23.282;2023-01-15T08:20:07;16.03;;;11.30;;
2888;SDS011;1453;42.708;23.282;2023-01-15T08:22:48;15.70;;;11.23;;
2888;SDS011;1453;42.708;23.282;2023-01-15T08:25:16;16.17;;;10.60;;
2888;SDS011;1453;42.708;23.282;2023-01-15T08:27:46;14.60;;;9.50;;
2888;SDS011;1453;42.708;23.282;2023-01-15T08:30:18;16.57;;;10.03;;
2888;SDS011;1453;42.708;23.282;2023-01-15T08:32:48;16.10;;;10.37;;
2888;SDS011;1453;42.708;23.282;2023-01-15T08:35:13;13.70;;;9.33;;
2888;SDS011;1453;42.708;23.282;2023-01-15T08:37:40;10.07;;;7.40;;
2888;SDS011;1453;42.708;23.282;2023-01-15T08:40:07;10.40;;;8.10;;
2888;SDS011;1453;42.708;23.282;2023-01-15T08:42:36;11.27;;;8.20;;
2888;SDS011;1453;42.708;23.282;2023-01-15T08:45:03;11.40;;;8.30;;
2888;SDS011;1453;42.708;23.282;2023-01-15T08:47:29;13.37;;;9.67;;
2888;SDS011;1453;42.708;23.282;2023-01-15T08:49:56;13.60;;;9.90;;
2888;SDS011;1453;42.708;23.282;2023-01-15T08:52:22;11.17;;;9.23;;
2888;SDS011;1453;42.708;23.282;2023-01-15T08:54:48;12.90;;;9.50;;
2888;SDS011;1453;42.708;23.282;2023-01-15T08:57:13;13.77;;;9.43;;
2888;SDS011;1453;42.708;23.282;2023-01-15T08:59:39;13.70;;;9.70;;
2888;SDS011;1453;42.708;23.282;2023-01-15T09:02:08;13.43;;;9.20;;
2888;SDS011;1453;42.708;23.282;2023-01-15T09:04:39;12.20;;;9.33;;
2888;SDS011;1453;42.708;23.282;2023-01-15T09:07:05;14.60;;;10.43;;
2888;SDS011;1453;42.708;23.282;2023-01-15T09:09:32;15.13;;;11.00;;
2888;SDS011;1453;42.708;23.282;2023-01-15T09:11:59;16.67;;;11.30;;
2888;SDS011;1453;42.708;23.282;2023-01-15T09:14:24;14.83;;;10.80;;
2888;SDS011;1453;42.708;23.282;2023-01-15T09:16:50;14.33;;;11.10;;
2888;SDS011;1453;42.708;23.282;2023-01-15T09:19:16;17.30;;;12.30;;
2888;SDS011;1453;42.708;23.282;2023-01-15T09:21:41;20.07;;;11.70;;
2888;SDS011;1453;42.708;23.282;2023-01-15T09:24:08;22.30;;;13.70;;
2888;SDS011;1453;42.708;23.282;2023-01-15T09:26:34;18.20;;;12.60;;
2888;SDS011;1453;42.708;23.282;2023-01-15T09:29:03;19.20;;;14.40;;
2888;SDS011;1453;42.708;23.282;2023-01-15T09:31:30;18.10;;;13.40;;
2888;SDS011;1453;42.708;23.282;2023-01-15T09:33:56;19.70;;;13.67;;
2888;SDS011;1453;42.708;23.282;2023-01-15T09:36:24;23.10;;;14.33;;
2888;SDS011;1453;42.708;23.282;2023-01-15T09:38:57;24.37;;;15.60;;
2888;SDS011;1453;42.708;23.282;2023-01-15T09:41:25;18.20;;;12.57;;
2888;SDS011;1453;42.708;23.282;2023-01-15T09:47:44;23.60;;;15.10;;
2888;SDS011;1453;42.708;23.282;2023-01-15T09:55:56;28.73;;;18.13;;
2888;SDS011;1453;42.708;23.282;2023-01-15T09:58:33;24.40;;;13.70;;
2888;SDS011;1453;42.708;23.282;2023-01-15T10:01:01;23.97;;;14.43;;
2888;SDS011;1453;42.708;23.282;2023-01-15T10:03:37;21.57;;;14.60;;
2888;SDS011;1453;42.708;23.282;2023-01-15T10:06:15;27.50;;;15.17;;
2888;SDS011;1453;42.708;23.282;2023-01-15T10:08:49;25.17;;;15.80;;
2888;SDS011;1453;42.708;23.282;2023-01-15T10:11:49;30.98;;;16.52;;
2888;SDS011;1453;42.708;23.282;2023-01-15T10:14:54;27.30;;;17.17;;
2888;SDS011;1453;42.708;23.282;2023-01-15T10:20:15;31.98;;;19.50;;
2888;SDS011;1453;42.708;23.282;2023-01-15T10:23:08;33.45;;;20.63;;
2888;SDS011;1453;42.708;23.282;2023-01-15T10:32:21;29.00;;;18.23;;
2888;SDS011;1453;42.708;23.282;2023-01-15T10:38:09;29.77;;;18.50;;
2888;SDS011;1453;42.708;23.282;2023-01-15T10:43:30;29.30;;;16.95;;
2888;SDS011;1453;42.708;23.282;2023-01-15T10:46:12;24.67;;;15.60;;
2888;SDS011;1453;42.708;23.282;2023-01-15T10:48:43;31.37;;;16.90;;
2888;SDS011;1453;42.708;23.282;2023-01-15T10:57:11;23.97;;;13.33;;
2888;SDS011;1453;42.708;23.282;2023-01-15T11:02:22;19.47;;;14.17;;
2888;SDS011;1453;42.708;23.282;2023-01-15T11:05:05;29.40;;;20.07;;
2888;SDS011;1453;42.708;23.282;2023-01-15T11:07:46;19.90;;;12.63;;
2888;SDS011;1453;42.708;23.282;2023-01-15T11:10:17;18.37;;;13.80;;
2888;SDS011;1453;42.708;23.282;2023-01-15T11:12:57;20.77;;;13.57;;
2888;SDS011;1453;42.708;23.282;2023-01-15T11:15:46;19.07;;;12.90;;
2888;SDS011;1453;42.708;23.282;2023-01-15T11:18:33;21.43;;;13.93;;
2888;SDS011;1453;42.708;23.282;2023-01-15T11:21:22;20.63;;;15.00;;
2888;SDS011;1453;42.708;23.282;2023-01-15T11:23:50;18.97;;;14.27;;
2888;SDS011;1453;42.708;23.282;2023-01-15T11:26:19;22.93;;;17.07;;
2888;SDS011;1453;42.708;23.282;2023-01-15T11:28:51;21.37;;;15.37;;
2888;SDS011;1453;42.708;23.282;2023-01-15T11:31:18;17.00;;;14.07;;
2888;SDS011;1453;42.708;23.282;2023-01-15T11:33:54;17.13;;;14.00;;
2888;SDS011;1453;42.708;23.282;2023-01-15T11:36:25;17.77;;;11.60;;
2888;SDS011;1453;42.708;23.282;2023-01-15T11:38:53;15.27;;;12.93;;
2888;SDS011;1453;42.708;23.282;2023-01-15T11:44:10;16.27;;;12.13;;
2888;SDS011;1453;42.708;23.282;2023-01-15T11:46:56;16.13;;;13.23;;
2888;SDS011;1453;42.708;23.282;2023-01-15T11:49:53;18.60;;;13.83;;
2888;SDS011;1453;42.708;23.282;2023-01-15T11:52:43;15.43;;;12.50;;
2888;SDS011;1453;42.708;23.282;2023-01-15T11:55:17;17.10;;;12.57;;
2888;SDS011;1453;42.708;23.282;2023-01-15T11:57:45;16.80;;;12.87;;
2888;SDS011;1453;42.708;23.282;2023-01-15T12:00:23;17.83;;;13.23;;
2888;SDS011;1453;42.708;23.282;2023-01-15T12:02:54;17.10;;;12.57;;
2888;SDS011;1453;42.708;23.282;2023-01-15T12:05:35;16.23;;;11.17;;
2888;SDS011;1453;42.708;23.282;2023-01-15T12:08:02;15.63;;;11.70;;
2888;SDS011;1453;42.708;23.282;2023-01-15T12:11:36;18.67;;;12.20;;
2888;SDS011;1453;42.708;23.282;2023-01-15T12:14:03;15.13;;;10.40;;
2888;SDS011;1453;42.708;23.282;2023-01-15T12:29:11;12.40;;;9.63;;
2888;SDS011;1453;42.708;23.282;2023-01-15T12:31:43;16.77;;;11.97;;
2888;SDS011;1453;42.708;23.282;2023-01-15T12:37:28;22.90;;;15.57;;
2888;SDS011;1453;42.708;23.282;2023-01-15T12:40:18;15.80;;;10.63;;
2888;SDS011;1453;42.708;23.282;2023-01-15T12:42:51;14.27;;;9.57;;
2888;SDS011;1453;42.708;23.282;2023-01-15T12:45:37;12.33;;;9.40;;
2888;SDS011;1453;42.708;23.282;2023-01-15T12:48:21;11.03;;;8.13;;
2888;SDS011;1453;42.708;23.282;2023-01-15T12:51:04;13.17;;;9.93;;
2888;SDS011;1453;42.708;23.282;2023-01-15T12:53:48;15.07;;;9.90;;
2888;SDS011;1453;42.708;23.282;2023-01-15T12:59:25;11.97;;;9.07;;
2888;SDS011;1453;42.708;23.282;2023-01-15T13:04:52;12.00;;;9.40;;
2888;SDS011;1453;42.708;23.282;2023-01-15T13:07:37;12.70;;;8.93;;
2888;SDS011;1453;42.708;23.282;2023-01-15T13:10:33;12.70;;;9.20;;
2888;SDS011;1453;42.708;23.282;2023-01-15T13:13:19;13.47;;;9.77;;
2888;SDS011;1453;42.708;23.282;2023-01-15T13:21:22;14.63;;;9.40;;
2888;SDS011;1453;42.708;23.282;2023-01-15T13:23:55;12.87;;;8.80;;
2888;SDS011;1453;42.708;23.282;2023-01-15T13:32:02;15.00;;;8.40;;
2888;SDS011;1453;42.708;23.282;2023-01-15T13:39:57;11.93;;;8.00;;
2888;SDS011;1453;42.708;23.282;2023-01-15T13:42:34;11.67;;;8.60;;
2888;SDS011;1453;42.708;23.282;2023-01-15T13:45:07;12.30;;;8.47;;
2888;SDS011;1453;42.708;23.282;2023-01-15T13:50:51;13.30;;;9.27;;
2888;SDS011;1453;42.708;23.282;2023-01-15T13:53:38;13.77;;;8.60;;
2888;SDS011;1453;42.708;23.282;2023-01-15T13:56:11;13.70;;;9.80;;
2888;SDS011;1453;42.708;23.282;2023-01-15T13:58:50;11.40;;;9.00;;
2888;SDS011;1453;42.708;23.282;2023-01-15T14:01:22;16.40;;;10.80;;
2888;SDS011;1453;42.708;23.282;2023-01-15T14:06:41;14.90;;;9.80;;
2888;SDS011;1453;42.708;23.282;2023-01-15T14:26:39;14.97;;;10.03;;
2888;SDS011;1453;42.708;23.282;2023-01-15T14:32:34;14.13;;;9.57;;
2888;SDS011;1453;42.708;23.282;2023-01-15T14:35:15;12.77;;;9.00;;
2888;SDS011;1453;42.708;23.282;2023-01-15T14:40:17;12.37;;;9.07;;
2888;SDS011;1453;42.708;23.282;2023-01-15T14:42:50;14.83;;;10.23;;
2888;SDS011;1453;42.708;23.282;2023-01-15T14:45:26;13.77;;;10.10;;
2888;SDS011;1453;42.708;23.282;2023-01-15T14:47:56;10.73;;;8.70;;
2888;SDS011;1453;42.708;23.282;2023-01-15T14:50:51;16.38;;;9.70;;
2888;SDS011;1453;42.708;23.282;2023-01-15T14:53:51;14.43;;;9.68;;
2888;SDS011;1453;42.708;23.282;2023-01-15T14:56:17;15.30;;;10.23;;
2888;SDS011;1453;42.708;23.282;2023-01-15T14:58:54;15.95;;;10.07;;
2888;SDS011;1453;42.708;23.282;2023-01-15T15:07:02;18.75;;;12.13;;
2888;SDS011;1453;42.708;23.282;2023-01-15T15:17:58;19.20;;;11.35;;
2888;SDS011;1453;42.708;23.282;2023-01-15T15:20:43;22.52;;;12.82;;
2888;SDS011;1453;42.708;23.282;2023-01-15T15:26:04;21.67;;;13.63;;
2888;SDS011;1453;42.708;23.282;2023-01-15T15:28:42;27.00;;;13.98;;
2888;SDS011;1453;42.708;23.282;2023-01-15T15:31:19;21.52;;;13.48;;
2888;SDS011;1453;42.708;23.282;2023-01-15T15:33:50;22.02;;;13.95;;
2888;SDS011;1453;42.708;23.282;2023-01-15T15:36:17;24.42;;;13.80;;
2888;SDS011;1453;42.708;23.282;2023-01-15T15:38:50;24.92;;;14.43;;
2888;SDS011;1453;42.708;23.282;2023-01-15T15:41:23;23.70;;;14.90;;
2888;SDS011;1453;42.708;23.282;2023-01-15T15:44:13;24.30;;;15.30;;
2888;SDS011;1453;42.708;23.282;2023-01-15T15:47:16;31.17;;;17.52;;
2888;SDS011;1453;42.708;23.282;2023-01-15T15:50:05;27.30;;;15.30;;
2888;SDS011;1453;42.708;23.282;2023-01-15T15:52:32;30.67;;;16.70;;
2888;SDS011;1453;42.708;23.282;2023-01-15T15:54:59;30.38;;;16.15;;
2888;SDS011;1453;42.708;23.282;2023-01-15T15:57:31;27.48;;;17.25;;
2888;SDS011;1453;42.708;23.282;2023-01-15T15:59:59;32.70;;;22.00;;
2888;SDS011;1453;42.708;23.282;2023-01-15T16:02:33;30.30;;;17.40;;
2888;SDS011;1453;42.708;23.282;2023-01-15T16:05:20;31.92;;;18.98;;
2888;SDS011;1453;42.708;23.282;2023-01-15T16:07:50;34.95;;;18.42;;
2888;SDS011;1453;42.708;23.282;2023-01-15T16:10:31;32.72;;;19.52;;
2888;SDS011;1453;42.708;23.282;2023-01-15T16:12:59;29.83;;;18.50;;
2888;SDS011;1453;42.708;23.282;2023-01-15T16:15:33;38.63;;;19.95;;
2888;SDS011;1453;42.708;23.282;2023-01-15T16:18:03;38.05;;;20.80;;
2888;SDS011;1453;42.708;23.282;2023-01-15T16:20:30;34.08;;;19.60;;
2888;SDS011;1453;42.708;23.282;2023-01-15T16:23:02;37.05;;;21.20;;
2888;SDS011;1453;42.708;23.282;2023-01-15T16:25:37;36.30;;;18.67;;
2888;SDS011;1453;42.708;23.282;2023-01-15T16:28:20;33.55;;;18.30;;
2888;SDS011;1453;42.708;23.282;2023-01-15T16:30:58;35.33;;;20.52;;
2888;SDS011;1453;42.708;23.282;2023-01-15T16:33:27;41.13;;;20.33;;
2888;SDS011;1453;42.708;23.282;2023-01-15T16:35:57;35.75;;;21.02;;
2888;SDS011;1453;42.708;23.282;2023-01-15T16:38:33;40.20;;;18.20;;
2888;SDS011;1453;42.708;23.282;2023-01-15T16:41:14;40.97;;;22.00;;
2888;SDS011;1453;42.708;23.282;2023-01-15T16:43:51;36.15;;;20.33;;
2888;SDS011;1453;42.708;23.282;2023-01-15T16:46:23;38.63;;;21.77;;
2888;SDS011;1453;42.708;23.282;2023-01-15T16:51:58;44.47;;;23.40;;
2888;SDS011;1453;42.708;23.282;2023-01-15T16:57:05;38.78;;;21.70;;
2888;SDS011;1453;42.708;23.282;2023-01-15T17:00:01;41.38;;;22.98;;
2888;SDS011;1453;42.708;23.282;2023-01-15T17:02:50;37.50;;;21.98;;
2888;SDS011;1453;42.708;23.282;2023-01-15T17:05:20;43.17;;;23.55;;
2888;SDS011;1453;42.708;23.282;2023-01-15T17:07:49;35.13;;;20.83;;
2888;SDS011;1453;42.708;23.282;2023-01-15T17:10:23;35.72;;;21.30;;
2888;SDS011;1453;42.708;23.282;2023-01-15T17:12:53;36.95;;;21.35;;
2888;SDS011;1453;42.708;23.282;2023-01-15T17:17:55;32.88;;;18.88;;
2888;SDS011;1453;42.708;23.282;2023-01-15T17:20:23;31.65;;;20.13;;
2888;SDS011;1453;42.708;23.282;2023-01-15T17:22:53;38.05;;;20.05;;
2888;SDS011;1453;42.708;23.282;2023-01-15T17:25:27;38.08;;;21.58;;
2888;SDS011;1453;42.708;23.282;2023-01-15T17:27:59;40.97;;;22.38;;
2888;SDS011;1453;42.708;23.282;2023-01-15T17:30:28;36.35;;;20.13;;
2888;SDS011;1453;42.708;23.282;2023-01-15T17:32:58;39.30;;;19.85;;
2888;SDS011;1453;42.708;23.282;2023-01-15T17:35:30;35.72;;;20.02;;
2888;SDS011;1453;42.708;23.282;2023-01-15T17:38:15;42.55;;;23.02;;
2888;SDS011;1453;42.708;23.282;2023-01-15T17:40:43;43.78;;;21.90;;
2888;SDS011;1453;42.708;23.282;2023-01-15T17:43:11;38.55;;;20.63;;
2888;SDS011;1453;42.708;23.282;2023-01-15T17:45:40;37.00;;;20.00;;
2888;SDS011;1453;42.708;23.282;2023-01-15T17:48:08;35.05;;;18.15;;
2888;SDS011;1453;42.708;23.282;2023-01-15T17:50:36;33.17;;;18.83;;